createdAt,value
2018-12-11T00:00:31.889Z,4.33
2018-12-11T00:03:05.655Z,5.10
2018-12-11T00:05:39.453Z,5.80
2018-12-11T00:08:13.589Z,5.57
2018-12-11T00:10:51.939Z,6.00
2018-12-11T00:13:25.763Z,5.57
2018-12-11T00:15:59.901Z,6.00
2018-12-11T00:18:33.588Z,5.77
2018-12-11T00:21:09.211Z,5.80
2018-12-11T00:23:43.362Z,5.70
2018-12-11T00:26:17.273Z,6.63
2018-12-11T00:28:55.731Z,5.67
2018-12-11T00:31:30.115Z,5.83
2018-12-11T00:34:07.986Z,5.47
2018-12-11T00:36:41.894Z,5.73
2018-12-11T00:39:15.686Z,5.27
2018-12-11T00:41:49.814Z,5.63
2018-12-11T00:44:26.419Z,6.67
2018-12-11T00:46:54.667Z,5.03
2018-12-11T00:49:29.254Z,5.13
2018-12-11T00:52:00.821Z,5.47
2018-12-11T00:54:35.254Z,6.00
2018-12-11T00:57:13.286Z,4.83
2018-12-11T00:59:51.229Z,5.03
2018-12-11T01:02:25.033Z,4.33
2018-12-11T01:05:01.576Z,5.10
2018-12-11T01:07:39.567Z,4.50
2018-12-11T01:10:13.718Z,4.73
2018-12-11T01:12:49.661Z,4.50
2018-12-11T01:15:23.929Z,4.53
2018-12-11T01:18:02.241Z,3.83
2018-12-11T01:20:43.233Z,4.20
2018-12-11T01:23:15.387Z,4.60
2018-12-11T01:25:47.179Z,4.20
2018-12-11T01:28:19.170Z,4.47
2018-12-11T01:30:50.255Z,4.50
2018-12-11T01:33:26.021Z,4.70
2018-12-11T01:36:00.735Z,4.60
2018-12-11T01:38:34.819Z,4.40
2018-12-11T01:41:10.025Z,5.00
2018-12-11T01:43:43.747Z,4.60
2018-12-11T01:46:17.654Z,4.33
2018-12-11T01:48:51.843Z,3.80
2018-12-11T01:51:23.853Z,4.40
2018-12-11T01:59:52.074Z,3.90
2018-12-11T02:02:26.851Z,4.00
2018-12-11T02:04:58.473Z,4.33
2018-12-11T02:07:27.963Z,3.80
2018-12-11T02:10:02.615Z,3.70
2018-12-11T02:12:44.096Z,3.87
2018-12-11T02:15:18.710Z,4.13
2018-12-11T02:17:52.556Z,4.90
2018-12-11T02:23:24.107Z,4.13
2018-12-11T02:25:55.530Z,3.80
2018-12-11T02:28:29.138Z,4.10
2018-12-11T02:31:14.087Z,3.77
2018-12-11T02:33:45.738Z,4.30
2018-12-11T02:36:21.552Z,4.67
2018-12-11T02:38:55.431Z,3.47
2018-12-11T02:41:31.187Z,3.63
2018-12-11T02:44:05.298Z,3.90
2018-12-11T02:46:39.487Z,4.63
2018-12-11T02:49:13.844Z,4.03
2018-12-11T02:51:51.727Z,4.00
2018-12-11T02:54:25.823Z,3.87
2018-12-11T02:56:57.382Z,4.23
2018-12-11T02:59:29.382Z,3.63
2018-12-11T03:02:04.087Z,3.70
2018-12-11T03:04:38.756Z,4.03
2018-12-11T03:07:10.207Z,3.73
2018-12-11T03:09:41.462Z,3.80
2018-12-11T03:12:13.119Z,3.97
2018-12-11T03:14:47.298Z,3.87
2018-12-11T03:17:21.287Z,3.30
2018-12-11T03:19:59.564Z,3.87
2018-12-11T03:22:33.338Z,3.73
2018-12-11T03:25:07.237Z,4.03
2018-12-11T03:27:44.935Z,3.60
2018-12-11T03:30:18.625Z,3.57
2018-12-11T03:32:53.217Z,4.03
2018-12-11T03:35:24.819Z,3.67
2018-12-11T03:37:59.112Z,3.97
2018-12-11T03:40:32.991Z,3.60
2018-12-11T03:43:10.968Z,3.60
2018-12-11T03:45:48.926Z,3.83
2018-12-11T03:48:23.022Z,4.27
2018-12-11T03:50:57.675Z,3.63
2018-12-11T03:53:31.670Z,3.30
2018-12-11T03:56:05.419Z,4.07
2018-12-11T03:58:39.274Z,3.67
2018-12-11T04:01:13.163Z,3.60
2018-12-11T04:03:44.957Z,4.20
2018-12-11T04:06:19.195Z,3.50
2018-12-11T04:08:53.037Z,4.07
2018-12-11T04:11:26.850Z,3.50
2018-12-11T04:14:00.789Z,3.70
2018-12-11T04:16:34.562Z,3.50
2018-12-11T04:19:08.408Z,3.47
2018-12-11T04:21:42.272Z,3.77
2018-12-11T04:24:14.039Z,3.20
2018-12-11T04:26:47.958Z,4.10
2018-12-11T04:29:21.747Z,3.37
2018-12-11T04:31:59.562Z,3.33
2018-12-11T04:34:33.668Z,3.47
2018-12-11T04:37:09.722Z,3.07
2018-12-11T04:39:48.005Z,3.40
2018-12-11T04:42:22.015Z,3.17
2018-12-11T04:44:55.830Z,3.30
2018-12-11T04:47:29.623Z,3.63
2018-12-11T04:50:03.675Z,3.17
2018-12-11T04:52:38.657Z,2.77
2018-12-11T05:00:15.728Z,3.30
2018-12-11T05:05:23.052Z,3.13
2018-12-11T05:08:02.750Z,3.67
2018-12-11T05:10:36.854Z,3.20
2018-12-11T05:13:10.992Z,3.33
2018-12-11T05:15:47.578Z,3.10
2018-12-11T05:18:23.626Z,3.47
2018-12-11T05:20:57.669Z,3.17
2018-12-11T05:23:35.417Z,3.07
2018-12-11T05:26:13.193Z,3.10
2018-12-11T05:28:44.668Z,3.20
2018-12-11T05:31:22.737Z,2.93
2018-12-11T05:34:00.784Z,3.30
2018-12-11T05:36:34.509Z,2.60
2018-12-11T05:39:08.504Z,2.80
2018-12-11T05:41:42.483Z,3.07
2018-12-11T05:44:20.229Z,2.93
2018-12-11T05:46:54.107Z,3.23
2018-12-11T05:49:27.839Z,3.23
2018-12-11T05:52:01.669Z,2.93
2018-12-11T05:54:39.511Z,2.67
2018-12-11T05:57:13.403Z,3.33
2018-12-11T05:59:47.194Z,3.40
2018-12-11T06:02:18.999Z,3.00
2018-12-11T06:04:57.140Z,2.67
2018-12-11T06:07:31.084Z,3.30
2018-12-11T06:10:08.979Z,2.80
2018-12-11T06:12:42.815Z,3.00
2018-12-11T06:15:17.473Z,3.52
2018-12-11T06:17:51.469Z,3.43
2018-12-11T06:20:25.391Z,2.80
2018-12-11T06:22:59.224Z,2.93
2018-12-11T06:25:33.004Z,2.73
2018-12-11T06:28:09.069Z,2.80
2018-12-11T06:30:45.364Z,3.40
2018-12-11T06:33:20.449Z,2.90
2018-12-11T06:35:55.737Z,3.47
2018-12-11T06:38:31.898Z,3.03
2018-12-11T06:41:09.761Z,3.03
2018-12-11T06:43:45.387Z,3.33
2018-12-11T06:46:19.311Z,2.93
2018-12-11T06:48:54.153Z,4.03
2018-12-11T06:51:31.958Z,3.23
2018-12-11T06:54:05.532Z,3.70
2018-12-11T06:56:41.085Z,3.17
2018-12-11T06:59:15.251Z,2.97
2018-12-11T07:01:51.177Z,3.40
2018-12-11T07:04:28.979Z,3.93
2018-12-11T07:07:03.062Z,3.43
2018-12-11T07:09:36.751Z,3.53
2018-12-11T07:12:10.500Z,3.00
2018-12-11T07:14:44.900Z,2.90
2018-12-11T07:17:16.799Z,3.80
2018-12-11T07:19:54.355Z,4.03
2018-12-11T07:22:32.546Z,3.30
2018-12-11T07:25:10.228Z,3.43
2018-12-11T07:27:44.262Z,3.30
2018-12-11T07:30:17.947Z,3.60
2018-12-11T07:32:51.787Z,3.40
2018-12-11T07:35:25.604Z,3.27
2018-12-11T07:37:59.800Z,3.80
2018-12-11T07:40:36.283Z,3.40
2018-12-11T07:43:10.120Z,3.50
2018-12-11T07:45:48.160Z,3.03
2018-12-11T07:48:21.900Z,3.00
2018-12-11T07:50:55.942Z,3.20
2018-12-11T07:53:29.734Z,3.73
2018-12-11T07:56:01.446Z,3.60
2018-12-11T07:58:36.380Z,3.20
2018-12-11T08:01:10.171Z,3.80
2018-12-11T08:03:58.496Z,3.20
2018-12-11T08:06:30.092Z,2.90
2018-12-11T08:09:04.325Z,3.50
2018-12-11T08:11:38.465Z,3.30
2018-12-11T08:14:18.244Z,3.73
2018-12-11T08:20:02.050Z,3.77
2018-12-11T08:25:41.824Z,3.00
2018-12-11T08:28:10.052Z,2.90
2018-12-11T08:30:43.865Z,2.87
2018-12-11T08:33:11.987Z,3.10
2018-12-11T08:38:42.485Z,3.40
2018-12-11T08:41:19.145Z,2.90
2018-12-11T08:43:47.375Z,2.90
2018-12-11T08:46:16.359Z,3.10
2018-12-11T08:48:44.511Z,2.97
2018-12-11T08:54:09.219Z,2.67
2018-12-11T08:56:47.411Z,3.40
2018-12-11T08:59:15.619Z,3.23
2018-12-11T09:01:43.774Z,3.27
2018-12-11T09:04:12.342Z,3.30
2018-12-11T09:09:38.203Z,3.57
2018-12-11T09:12:13.803Z,3.67
2018-12-11T09:14:42.013Z,3.53
2018-12-11T09:17:20.526Z,3.37
2018-12-11T09:19:51.660Z,3.30
2018-12-11T09:22:23.340Z,3.00
2018-12-11T09:24:55.172Z,3.90
2018-12-11T09:27:30.428Z,4.73
2018-12-11T09:30:08.684Z,3.40
2018-12-11T09:32:40.116Z,2.80
2018-12-11T09:35:11.860Z,3.73
2018-12-11T09:37:42.916Z,3.13
2018-12-11T09:40:13.826Z,3.60
2018-12-11T09:42:52.079Z,2.90
2018-12-11T09:45:29.945Z,3.37
2018-12-11T09:48:03.964Z,2.97
2018-12-11T09:50:38.020Z,2.73
2018-12-11T09:53:15.771Z,3.07
2018-12-11T09:55:51.646Z,2.53
2018-12-11T09:58:27.672Z,3.30
2018-12-11T10:01:07.883Z,3.20
2018-12-11T10:03:48.361Z,3.07
2018-12-11T10:06:22.984Z,2.93
2018-12-11T10:09:02.040Z,3.30
2018-12-11T10:11:35.766Z,2.60
2018-12-11T10:14:10.186Z,2.80
2018-12-11T10:16:46.649Z,2.57
2018-12-11T10:19:20.671Z,2.73
2018-12-11T10:21:55.333Z,3.37
2018-12-11T10:24:29.443Z,3.10
2018-12-11T10:27:07.173Z,2.43
2018-12-11T10:29:42.021Z,3.13
2018-12-11T10:32:17.464Z,2.57
2018-12-11T10:34:52.445Z,2.37
2018-12-11T10:37:26.980Z,2.70
2018-12-11T10:39:59.127Z,3.30
2018-12-11T10:42:36.977Z,2.50
2018-12-11T10:45:10.839Z,3.00
2018-12-11T10:47:49.797Z,2.60
2018-12-11T10:50:27.703Z,2.70
2018-12-11T10:52:59.849Z,2.50
2018-12-11T10:55:32.023Z,2.57
2018-12-11T10:58:18.831Z,2.67
2018-12-11T11:00:58.266Z,2.27
2018-12-11T11:03:33.590Z,2.50
2018-12-11T11:06:08.846Z,2.50
2018-12-11T11:08:43.416Z,2.70
2018-12-11T11:11:17.498Z,2.90
2018-12-11T11:13:55.391Z,2.63
2018-12-11T11:16:29.942Z,2.70
2018-12-11T11:19:04.252Z,2.70
2018-12-11T11:21:42.133Z,2.70
2018-12-11T11:24:16.037Z,2.83
2018-12-11T11:26:50.427Z,2.93
2018-12-11T11:29:26.395Z,2.47
2018-12-11T11:32:09.376Z,2.70
2018-12-11T11:34:43.686Z,2.47
2018-12-11T11:37:18.561Z,2.80
2018-12-11T11:39:50.172Z,2.80
2018-12-11T11:42:24.223Z,5.10
2018-12-11T11:44:58.150Z,4.20
2018-12-11T11:47:34.449Z,2.37
2018-12-11T11:50:11.447Z,2.53
2018-12-11T11:52:45.303Z,3.50
2018-12-11T11:55:19.125Z,3.57
2018-12-11T11:57:54.860Z,2.87
2018-12-11T12:00:28.811Z,3.50
2018-12-11T12:03:06.467Z,3.07
2018-12-11T12:05:40.379Z,3.07
2018-12-11T12:08:19.040Z,3.07
2018-12-11T12:10:55.449Z,2.60
2018-12-11T12:13:35.720Z,2.93
2018-12-11T12:16:10.048Z,2.63
2018-12-11T12:18:44.612Z,2.67
2018-12-11T12:21:18.734Z,2.93
2018-12-11T12:23:50.594Z,2.57
2018-12-11T12:26:24.679Z,2.93
2018-12-11T12:29:00.456Z,2.63
2018-12-11T12:31:34.583Z,2.67
2018-12-11T12:34:08.360Z,3.40
2018-12-11T12:36:42.179Z,2.90
2018-12-11T12:39:16.046Z,2.83
2018-12-11T12:41:49.880Z,4.30
2018-12-11T12:44:23.630Z,4.30
2018-12-11T12:46:57.450Z,4.93
2018-12-11T12:49:31.118Z,3.53
2018-12-11T12:52:05.277Z,3.70
2018-12-11T12:54:39.812Z,3.03
2018-12-11T12:57:13.782Z,2.93
2018-12-11T12:59:49.536Z,3.40
2018-12-11T13:02:21.583Z,3.30
2018-12-11T13:05:02.344Z,3.87
2018-12-11T13:07:36.626Z,3.43
2018-12-11T13:10:11.780Z,3.43
2018-12-11T13:12:51.299Z,3.90
2018-12-11T13:15:27.906Z,4.43
2018-12-11T13:18:06.973Z,5.20
2018-12-11T13:20:42.352Z,3.67
2018-12-11T13:23:20.091Z,4.23
2018-12-11T13:25:54.082Z,3.53
2018-12-11T13:28:32.455Z,3.50
2018-12-11T13:31:03.969Z,4.53
2018-12-11T13:33:40.187Z,4.40
2018-12-11T13:36:14.074Z,4.77
2018-12-11T13:38:49.882Z,4.23
2018-12-11T13:41:30.103Z,3.73
2018-12-11T13:44:04.746Z,4.40
2018-12-11T13:46:38.090Z,15.67
2018-12-11T13:49:16.343Z,7.20
2018-12-11T13:51:54.326Z,9.03
2018-12-11T13:54:26.258Z,6.43
2018-12-11T13:57:05.366Z,5.37
2018-12-11T13:59:39.509Z,4.30
2018-12-11T14:02:13.201Z,4.20
2018-12-11T14:04:47.144Z,4.10
2018-12-11T14:07:24.901Z,4.13
2018-12-11T14:10:04.616Z,4.70
2018-12-11T14:12:47.893Z,4.60
2018-12-11T14:15:22.683Z,4.47
2018-12-11T14:18:05.203Z,4.20
2018-12-11T14:20:44.532Z,4.13
2018-12-11T14:23:20.083Z,4.00
2018-12-11T14:26:00.242Z,4.27
2018-12-11T14:28:35.444Z,4.50
2018-12-11T14:31:13.620Z,3.50
2018-12-11T14:33:48.687Z,4.00
2018-12-11T14:36:25.352Z,4.60
2018-12-11T14:39:00.975Z,4.10
2018-12-11T14:41:40.864Z,3.70
2018-12-11T14:44:20.340Z,3.37
2018-12-11T14:46:54.346Z,3.47
2018-12-11T14:49:34.892Z,3.10
2018-12-11T14:52:09.614Z,3.67
2018-12-11T14:54:43.573Z,3.10
2018-12-11T14:57:21.419Z,3.50
2018-12-11T14:59:55.283Z,3.57
2018-12-11T15:02:29.598Z,3.20
2018-12-11T15:05:01.898Z,4.10
2018-12-11T15:07:39.978Z,3.80
2018-12-11T15:10:14.955Z,4.80
2018-12-11T15:12:47.033Z,4.17
2018-12-11T15:15:23.395Z,5.20
2018-12-11T15:17:57.161Z,3.60
2018-12-11T15:20:31.035Z,3.73
2018-12-11T15:23:04.842Z,4.43
2018-12-11T15:25:39.484Z,4.30
2018-12-11T15:28:09.582Z,4.77
2018-12-11T15:30:44.542Z,4.77
2018-12-11T15:33:18.612Z,4.90
2018-12-11T15:35:51.704Z,3.43
2018-12-11T15:38:30.921Z,4.43
2018-12-11T15:41:04.768Z,3.90
2018-12-11T15:43:38.667Z,3.60
2018-12-11T15:46:14.658Z,4.43
2018-12-11T15:48:52.880Z,4.30
2018-12-11T15:51:27.706Z,4.37
2018-12-11T15:54:01.805Z,3.90
2018-12-11T15:56:37.899Z,3.67
2018-12-11T15:59:11.647Z,3.50
2018-12-11T16:01:45.649Z,3.70
2018-12-11T16:04:19.587Z,3.90
2018-12-11T16:06:55.479Z,3.73
2018-12-11T16:09:34.775Z,4.60
2018-12-11T16:12:11.039Z,4.30
2018-12-11T16:14:48.902Z,4.23
2018-12-11T16:17:26.783Z,3.83
2018-12-11T16:20:02.783Z,3.40
2018-12-11T16:22:36.474Z,4.17
2018-12-11T16:25:10.783Z,4.40
2018-12-11T16:27:42.950Z,4.20
2018-12-11T16:30:17.187Z,4.97
2018-12-11T16:32:51.094Z,4.27
2018-12-11T16:35:24.950Z,4.20
2018-12-11T16:38:03.014Z,3.70
2018-12-11T16:40:37.222Z,4.47
2018-12-11T16:48:17.838Z,4.43
2018-12-11T16:50:51.787Z,4.27
2018-12-11T16:53:29.422Z,4.73
2018-12-11T16:56:05.509Z,4.00
2018-12-11T16:58:43.190Z,5.70
2018-12-11T17:01:17.067Z,5.10
2018-12-11T17:03:50.900Z,5.03
2018-12-11T17:06:25.012Z,5.10
2018-12-11T17:08:58.822Z,4.50
2018-12-11T17:11:32.675Z,4.70
2018-12-11T17:14:12.971Z,5.17
2018-12-11T17:16:45.090Z,4.33
2018-12-11T17:19:23.638Z,5.10
2018-12-11T17:21:57.719Z,4.57
2018-12-11T17:24:33.708Z,4.50
2018-12-11T17:27:07.726Z,4.43
2018-12-11T17:29:41.634Z,4.73
2018-12-11T17:32:15.404Z,4.93
2018-12-11T17:34:55.860Z,5.10
2018-12-11T17:37:36.653Z,4.90
2018-12-11T17:40:14.775Z,4.90
2018-12-11T17:42:54.831Z,4.93
2018-12-11T17:45:26.914Z,5.50
2018-12-11T17:48:05.743Z,5.00
2018-12-11T17:50:40.410Z,5.37
2018-12-11T17:53:13.896Z,5.67
2018-12-11T17:55:46.086Z,5.10
2018-12-11T17:58:18.282Z,5.90
2018-12-11T18:00:50.762Z,6.33
2018-12-11T18:03:24.740Z,5.73
2018-12-11T18:05:58.864Z,5.47
2018-12-11T18:08:31.028Z,5.60
2018-12-11T18:11:03.276Z,6.30
2018-12-11T18:13:37.511Z,6.70
2018-12-11T18:16:11.266Z,5.87
2018-12-11T18:18:49.067Z,6.13
2018-12-11T18:21:22.854Z,6.57
2018-12-11T18:23:58.070Z,5.67
2018-12-11T18:26:30.022Z,5.83
2018-12-11T18:29:04.359Z,5.90
2018-12-11T18:31:38.277Z,6.53
2018-12-11T18:34:14.867Z,6.20
2018-12-11T18:36:48.815Z,6.73
2018-12-11T18:39:22.484Z,6.17
2018-12-11T18:42:00.354Z,6.30
2018-12-11T18:44:34.308Z,5.90
2018-12-11T18:47:13.954Z,6.00
2018-12-11T18:49:48.024Z,6.07
2018-12-11T18:52:21.951Z,6.40
2018-12-11T18:54:58.414Z,6.00
2018-12-11T18:57:36.407Z,6.03
2018-12-11T19:00:10.342Z,6.67
2018-12-11T19:02:45.163Z,6.90
2018-12-11T19:05:23.157Z,7.00
2018-12-11T19:07:57.154Z,6.77
2018-12-11T19:10:37.335Z,7.37
2018-12-11T19:13:13.828Z,7.73
2018-12-11T19:15:51.668Z,6.77
2018-12-11T19:18:25.495Z,6.67
2018-12-11T19:21:03.186Z,7.13
2018-12-11T19:23:38.538Z,6.87
2018-12-11T19:26:12.639Z,6.83
2018-12-11T19:28:46.830Z,6.33
2018-12-11T19:31:35.143Z,6.47
2018-12-11T19:34:09.369Z,6.00
2018-12-11T19:36:43.073Z,6.77
2018-12-11T19:39:16.783Z,6.23
2018-12-11T19:41:50.686Z,6.87
2018-12-11T19:44:24.671Z,7.23
2018-12-11T19:47:00.678Z,6.67
2018-12-11T19:49:35.154Z,7.57
2018-12-11T19:52:15.630Z,7.00
2018-12-11T19:54:53.764Z,6.50
2018-12-11T19:57:42.110Z,8.17
2018-12-11T20:00:16.278Z,7.70
2018-12-11T20:02:45.838Z,8.00
2018-12-11T20:08:06.911Z,6.90
2018-12-11T20:10:35.155Z,7.10
2018-12-11T20:13:11.482Z,8.03
2018-12-11T20:15:47.110Z,7.03
2018-12-11T20:18:21.835Z,7.30
2018-12-11T20:20:59.735Z,7.43
2018-12-11T20:23:31.618Z,7.20
2018-12-11T20:26:03.259Z,6.63
2018-12-11T20:28:38.702Z,7.13
2018-12-11T20:31:14.366Z,7.10
2018-12-11T20:33:48.541Z,6.67
2018-12-11T20:36:20.095Z,7.33
2018-12-11T20:38:55.360Z,7.70
2018-12-11T20:41:30.003Z,8.03
2018-12-11T20:44:04.260Z,7.73
2018-12-11T20:46:38.320Z,8.23
2018-12-11T20:49:12.841Z,7.47
2018-12-11T20:51:51.068Z,7.50
2018-12-11T20:54:24.867Z,8.17
2018-12-11T20:56:56.471Z,7.43
2018-12-11T20:59:30.969Z,8.10
2018-12-11T21:02:03.306Z,7.90
2018-12-11T21:04:35.219Z,8.20
2018-12-11T21:07:09.670Z,8.60
2018-12-11T21:09:47.614Z,7.90
2018-12-11T21:12:21.375Z,7.90
2018-12-11T21:14:55.501Z,8.00
2018-12-11T21:17:30.167Z,7.40
2018-12-11T21:20:04.407Z,7.53
2018-12-11T21:22:42.837Z,8.67
2018-12-11T21:25:20.552Z,8.10
2018-12-11T21:27:54.613Z,7.87
2018-12-11T21:30:28.591Z,9.00
2018-12-11T21:33:03.217Z,7.90
2018-12-11T21:35:37.296Z,7.03
2018-12-11T21:38:11.208Z,8.43
2018-12-11T21:40:49.097Z,7.27
2018-12-11T21:43:26.999Z,7.97
2018-12-11T21:46:01.009Z,9.30
2018-12-11T21:48:34.967Z,8.40
2018-12-11T21:51:08.888Z,8.23
2018-12-11T21:53:42.770Z,7.47
2018-12-11T21:56:20.546Z,8.00
2018-12-11T21:58:55.416Z,7.77
2018-12-11T22:01:33.528Z,8.80
2018-12-11T22:04:09.877Z,8.47
2018-12-11T22:06:43.650Z,9.27
2018-12-11T22:09:17.694Z,8.57
2018-12-11T22:11:51.558Z,9.10
2018-12-11T22:14:25.414Z,9.17
2018-12-11T22:16:59.332Z,10.17
2018-12-11T22:19:37.118Z,8.93
2018-12-11T22:22:15.719Z,9.90
2018-12-11T22:24:49.841Z,9.60
2018-12-11T22:27:25.252Z,10.17
2018-12-11T22:30:03.372Z,10.00
2018-12-11T22:32:37.712Z,10.13
2018-12-11T22:35:16.476Z,9.07
2018-12-11T22:37:51.663Z,9.93
2018-12-11T22:40:29.533Z,10.07
2018-12-11T22:43:03.886Z,9.70
2018-12-11T22:45:42.343Z,9.23
2018-12-11T22:48:15.944Z,9.53
2018-12-11T22:50:50.041Z,9.70
2018-12-11T22:53:22.121Z,9.83
2018-12-11T22:55:56.477Z,9.63
2018-12-11T22:58:32.495Z,9.20
2018-12-11T23:01:06.480Z,9.00
2018-12-11T23:03:36.335Z,10.20
2018-12-11T23:06:10.725Z,8.93
2018-12-11T23:08:45.117Z,8.17
2018-12-11T23:11:19.129Z,9.70
2018-12-11T23:13:51.073Z,8.70
2018-12-11T23:16:25.234Z,9.60
2018-12-11T23:19:03.426Z,8.50
2018-12-11T23:21:34.943Z,9.43
2018-12-11T23:24:11.206Z,9.57
2018-12-11T23:26:46.323Z,9.30
2018-12-11T23:29:21.146Z,10.17
2018-12-11T23:31:55.002Z,8.90
2018-12-11T23:34:28.856Z,8.90
2018-12-11T23:37:03.013Z,9.17
2018-12-11T23:39:36.608Z,9.53
2018-12-11T23:42:10.277Z,9.13
2018-12-11T23:44:44.525Z,9.27
2018-12-11T23:47:22.385Z,9.20
2018-12-11T23:49:56.496Z,9.30
2018-12-11T23:52:30.476Z,10.43
2018-12-11T23:55:04.668Z,9.23
2018-12-11T23:57:38.375Z,9.57
